Time;durP1;ratioP1;P1;durP2;ratioP2;P2;SDS_P1;SDS_P2;PMS_P1;PMS_P2;Temp;Humidity;BMP_temperature;BMP_pressure;BME280_temperature;BME280_humidity;BME280_pressure;Samples;Min_cycle;Max_cycle;Signal;HPM_P1;HPM_P2
2023/07/30 00:01:18;;;;;;;11.02;3.72;;;;;;;-145.50;100.00;65435.88;4981585;28;20051;-71
2023/07/30 00:03:45;;;;;;;14.82;3.90;;;;;;;-145.50;100.00;65435.88;4976143;28;20046;-71
2023/07/30 00:06:11;;;;;;;7.95;3.00;;;;;;;-145.50;100.00;65435.88;4965024;28;20047;-71
2023/07/30 00:08:38;;;;;;;9.15;3.50;;;;;;;-145.50;100.00;65435.88;4969906;28;20058;-71
2023/07/30 00:11:04;;;;;;;8.13;3.47;;;;;;;-145.50;100.00;65435.88;4943362;28;20050;-71
2023/07/30 00:13:31;;;;;;;8.43;3.65;;;;;;;-145.50;100.00;65435.88;4971277;28;20050;-71
2023/07/30 00:15:57;;;;;;;10.32;3.20;;;;;;;-145.50;100.00;65435.88;4981071;28;20112;-71
2023/07/30 00:18:24;;;;;;;9.90;3.10;;;;;;;-145.50;100.00;65435.88;4980158;28;20057;-70
2023/07/30 00:20:50;;;;;;;8.25;3.63;;;;;;;-145.50;100.00;65435.88;4977789;28;20510;-71
2023/07/30 00:23:17;;;;;;;8.85;3.30;;;;;;;-145.50;100.00;65435.88;4977138;28;20461;-70
2023/07/30 00:25:44;;;;;;;9.43;3.25;;;;;;;-145.50;100.00;65435.88;4982862;28;20054;-71
2023/07/30 00:28:10;;;;;;;9.63;3.67;;;;;;;-145.50;100.00;65435.88;4978715;28;20124;-72
2023/07/30 00:30:36;;;;;;;8.57;2.80;;;;;;;-145.50;100.00;65435.88;4978371;28;20113;-71
2023/07/30 00:33:03;;;;;;;10.25;3.03;;;;;;;-145.50;100.00;65435.88;4963127;28;20133;-71
2023/07/30 00:35:30;;;;;;;9.70;3.25;;;;;;;-145.50;100.00;65435.88;4985507;28;20064;-70
2023/07/30 00:37:56;;;;;;;8.93;3.03;;;;;;;-145.50;100.00;65435.88;4957125;28;20508;-71
2023/07/30 00:40:23;;;;;;;9.65;2.90;;;;;;;-145.50;100.00;65435.88;4979425;28;20057;-71
2023/07/30 00:42:50;;;;;;;8.63;2.70;;;;;;;-145.50;100.00;65435.88;4969879;28;20054;-71
2023/07/30 00:45:16;;;;;;;8.70;2.55;;;;;;;-145.50;100.00;65435.88;4979330;28;20051;-71
2023/07/30 00:47:43;;;;;;;4.88;2.70;;;;;;;-145.50;100.00;65435.88;4970224;28;20398;-71
2023/07/30 00:50:12;;;;;;;7.18;2.95;;;;;;;-145.50;100.00;65435.88;4978637;28;20062;-71
2023/07/30 00:52:39;;;;;;;6.28;2.70;;;;;;;-145.50;100.00;65435.88;4980972;28;20534;-71
2023/07/30 00:55:07;;;;;;;8.95;2.80;;;;;;;-145.50;100.00;65435.88;4962142;28;20054;-71
2023/07/30 00:57:36;;;;;;;9.85;2.72;;;;;;;-145.50;100.00;65435.88;4984007;28;20101;-71
2023/07/30 01:00:05;;;;;;;10.77;3.15;;;;;;;-145.50;100.00;65435.88;4973097;28;20051;-70
2023/07/30 01:02:32;;;;;;;9.65;2.97;;;;;;;-145.50;100.00;65435.88;4978121;28;20066;-70
2023/07/30 01:05:01;;;;;;;9.57;3.58;;;;;;;-145.50;100.00;65435.88;4982420;28;20400;-71
2023/07/30 01:07:27;;;;;;;14.30;3.28;;;;;;;-145.50;100.00;65435.88;4966102;28;20133;-70
2023/07/30 01:09:54;;;;;;;11.38;3.33;;;;;;;-145.50;100.00;65435.88;4969225;28;20140;-70
2023/07/30 01:12:22;;;;;;;10.43;2.92;;;;;;;-145.50;100.00;65435.88;4962637;28;20559;-71
2023/07/30 01:14:50;;;;;;;10.45;3.00;;;;;;;-145.50;100.00;65435.88;4970543;28;20081;-71
2023/07/30 01:17:17;;;;;;;7.68;3.10;;;;;;;-145.50;100.00;65435.88;4986049;28;20050;-71
2023/07/30 01:19:44;;;;;;;11.10;2.95;;;;;;;-145.50;100.00;65435.88;4976143;28;20054;-71
2023/07/30 01:22:10;;;;;;;9.90;3.53;;;;;;;-145.50;100.00;65435.88;4980933;28;20090;-71
2023/07/30 01:24:36;;;;;;;8.15;3.00;;;;;;;-145.50;100.00;65435.88;4962803;28;20066;-71
2023/07/30 01:27:07;;;;;;;8.13;3.17;;;;;;;-145.50;100.00;65435.88;4991110;28;20377;-71
2023/07/30 01:29:51;;;;;;;6.95;3.03;;;;;;;-145.50;100.00;65435.88;4987617;28;20132;-71
2023/07/30 01:32:24;;;;;;;9.50;3.15;;;;;;;-145.50;100.00;65435.88;4955235;28;20081;-71
2023/07/30 01:34:52;;;;;;;9.82;3.83;;;;;;;-145.50;100.00;65435.88;4971713;28;20412;-71
2023/07/30 01:37:20;;;;;;;7.68;3.40;;;;;;;-145.50;100.00;65435.88;4974792;28;20069;-71
2023/07/30 01:39:48;;;;;;;9.00;3.37;;;;;;;-145.50;100.00;65435.88;4987443;28;20046;-71
2023/07/30 01:42:16;;;;;;;9.98;3.10;;;;;;;-145.50;100.00;65435.88;4973573;28;20382;-71
2023/07/30 01:44:42;;;;;;;12.95;3.17;;;;;;;-145.50;100.00;65435.88;4957282;28;20105;-71
2023/07/30 01:47:09;;;;;;;8.98;3.20;;;;;;;-145.50;100.00;65435.88;4967527;28;20081;-71
2023/07/30 01:49:35;;;;;;;11.27;4.22;;;;;;;-145.50;100.00;65435.88;4980000;28;20089;-71
2023/07/30 01:52:02;;;;;;;7.00;3.10;;;;;;;-145.50;100.00;65435.88;4962683;28;20054;-71
2023/07/30 01:54:28;;;;;;;10.88;3.30;;;;;;;-145.50;100.00;65435.88;4985927;28;20051;-71
2023/07/30 01:56:55;;;;;;;10.38;3.67;;;;;;;-145.50;100.00;65435.88;4976186;28;20183;-71
2023/07/30 01:59:21;;;;;;;13.18;3.60;;;;;;;-145.50;100.00;65435.88;4984001;28;20047;-70
2023/07/30 02:01:48;;;;;;;7.18;3.33;;;;;;;-145.50;100.00;65435.88;4970971;28;20046;-71
2023/07/30 02:04:16;;;;;;;10.02;3.70;;;;;;;-145.50;100.00;65435.88;4972587;28;20578;-71
2023/07/30 02:06:43;;;;;;;8.43;3.55;;;;;;;-145.50;100.00;65435.88;4986007;28;20058;-71
2023/07/30 02:09:09;;;;;;;8.07;3.30;;;;;;;-145.50;100.00;65435.88;4985998;28;20147;-71
2023/07/30 02:11:35;;;;;;;8.48;3.03;;;;;;;-145.50;100.00;65435.88;4985825;28;20495;-70
2023/07/30 02:14:02;;;;;;;11.23;3.55;;;;;;;-145.50;100.00;65435.88;4957976;28;20487;-71
2023/07/30 02:16:29;;;;;;;11.10;3.28;;;;;;;-145.50;100.00;65435.88;4972749;28;20403;-70
2023/07/30 02:18:55;;;;;;;6.40;3.25;;;;;;;-145.50;100.00;65435.88;4984202;28;20058;-71
2023/07/30 02:21:22;;;;;;;13.57;3.95;;;;;;;-145.50;100.00;65435.88;4980049;28;20077;-70
2023/07/30 02:23:48;;;;;;;11.15;3.63;;;;;;;-145.50;100.00;65435.88;4983086;28;20065;-71
2023/07/30 02:26:15;;;;;;;9.70;3.53;;;;;;;-145.50;100.00;65435.88;4964459;28;20082;-71
2023/07/30 02:28:41;;;;;;;12.38;3.80;;;;;;;-145.50;100.00;65435.88;4969319;28;20058;-70
2023/07/30 02:31:08;;;;;;;12.77;3.50;;;;;;;-145.50;100.00;65435.88;4961741;28;20465;-71
2023/07/30 02:33:34;;;;;;;8.35;3.35;;;;;;;-145.50;100.00;65435.88;4979983;28;20133;-71
2023/07/30 02:36:01;;;;;;;9.48;3.35;;;;;;;-145.50;100.00;65435.88;4985442;28;20140;-71
2023/07/30 02:38:27;;;;;;;10.10;3.20;;;;;;;-145.50;100.00;65435.88;4961763;28;20046;-70
2023/07/30 02:40:54;;;;;;;8.63;3.42;;;;;;;-145.50;100.00;65435.88;4963026;28;20078;-71
2023/07/30 02:43:20;;;;;;;11.13;3.83;;;;;;;-145.50;100.00;65435.88;4978946;28;20074;-70
2023/07/30 02:45:48;;;;;;;12.13;4.05;;;;;;;-145.50;100.00;65435.88;4974383;28;20150;-70
2023/07/30 02:48:14;;;;;;;12.38;3.80;;;;;;;-145.50;100.00;65435.88;4967557;28;20055;-70
2023/07/30 02:50:41;;;;;;;11.73;3.55;;;;;;;-145.50;100.00;65435.88;4979346;28;20090;-71
2023/07/30 02:53:07;;;;;;;10.63;3.97;;;;;;;-145.50;100.00;65435.88;4985581;28;20061;-71
2023/07/30 02:55:34;;;;;;;16.45;4.35;;;;;;;-145.50;100.00;65435.88;4962574;28;20478;-70
2023/07/30 02:58:00;;;;;;;11.05;3.38;;;;;;;-145.50;100.00;65435.88;4979335;28;20574;-71
2023/07/30 03:00:27;;;;;;;15.88;4.78;;;;;;;-145.50;100.00;65435.88;4977590;28;20133;-72
2023/07/30 03:02:54;;;;;;;10.73;3.63;;;;;;;-145.50;100.00;65435.88;4959407;28;20511;-72
2023/07/30 03:05:20;;;;;;;15.10;4.43;;;;;;;-145.50;100.00;65435.88;4976359;28;20092;-71
2023/07/30 03:07:47;;;;;;;12.40;4.55;;;;;;;-145.50;100.00;65435.88;4960062;28;20132;-72
2023/07/30 03:10:13;;;;;;;18.02;4.97;;;;;;;-145.50;100.00;65435.88;4984165;28;20046;-72
2023/07/30 03:12:40;;;;;;;12.50;4.72;;;;;;;-145.50;100.00;65435.88;4962470;28;20073;-71
2023/07/30 03:15:07;;;;;;;19.00;5.05;;;;;;;-145.50;100.00;65435.88;4960695;28;20053;-71
2023/07/30 03:17:33;;;;;;;14.05;4.75;;;;;;;-145.50;100.00;65435.88;4984771;28;20054;-71
2023/07/30 03:20:00;;;;;;;15.88;5.10;;;;;;;-145.50;100.00;65435.88;4976971;28;20077;-71
2023/07/30 03:22:26;;;;;;;13.25;4.75;;;;;;;-145.50;100.00;65435.88;4984753;28;20076;-71
2023/07/30 03:24:53;;;;;;;16.58;5.32;;;;;;;-145.50;100.00;65435.88;4971926;28;20491;-71
2023/07/30 03:27:19;;;;;;;13.35;5.18;;;;;;;-145.50;100.00;65435.88;4978778;28;20072;-72
2023/07/30 03:29:52;;;;;;;16.42;5.60;;;;;;;-145.50;100.00;65435.88;4982785;28;20065;-72
2023/07/30 03:32:24;;;;;;;;;;;;;;;-145.50;100.00;65435.88;4972593;28;20051;-72
2023/07/30 03:34:51;;;;;;;15.45;5.70;;;;;;;-145.50;100.00;65435.88;4972407;28;19992;-71
2023/07/30 03:37:17;;;;;;;15.07;6.28;;;;;;;-145.50;100.00;65435.88;4972309;28;20153;-71
2023/07/30 03:39:44;;;;;;;21.73;6.28;;;;;;;-145.50;100.00;65435.88;4982849;28;20164;-71
2023/07/30 03:42:11;;;;;;;16.27;5.22;;;;;;;-145.50;100.00;65435.88;4956065;28;20051;-72
2023/07/30 03:44:37;;;;;;;21.15;6.03;;;;;;;-145.50;100.00;65435.88;4982882;28;20086;-72
2023/07/30 03:47:04;;;;;;;20.80;6.57;;;;;;;-145.50;100.00;65435.88;4958242;28;20043;-72
2023/07/30 03:49:30;;;;;;;20.05;6.80;;;;;;;-145.50;100.00;65435.88;4966953;28;20116;-72
2023/07/30 03:51:57;;;;;;;17.35;5.70;;;;;;;-145.50;100.00;65435.88;4958079;28;20109;-72
2023/07/30 03:54:23;;;;;;;14.48;6.25;;;;;;;-145.50;100.00;65435.88;4952779;28;20051;-72
2023/07/30 03:56:50;;;;;;;17.95;6.25;;;;;;;-145.50;100.00;65435.88;4975585;28;20054;-72
2023/07/30 03:59:17;;;;;;;17.15;6.20;;;;;;;-145.50;100.00;65435.88;4960207;28;20042;-72
2023/07/30 04:01:43;;;;;;;13.40;5.60;;;;;;;-145.50;100.00;65435.88;4961429;28;20086;-71
2023/07/30 04:04:10;;;;;;;15.32;5.82;;;;;;;-145.50;100.00;65435.88;4980071;28;20054;-72
2023/07/30 04:06:36;;;;;;;19.63;6.63;;;;;;;-145.50;100.00;65435.88;4948984;28;20238;-71
2023/07/30 04:09:03;;;;;;;16.05;5.95;;;;;;;-145.50;100.00;65435.88;4963243;28;20069;-72
2023/07/30 04:11:30;;;;;;;18.38;6.68;;;;;;;-145.50;100.00;65435.88;4959346;28;20047;-72
2023/07/30 04:13:56;;;;;;;20.33;6.47;;;;;;;-145.50;100.00;65435.88;4964381;28;20085;-72
2023/07/30 04:16:23;;;;;;;23.90;6.70;;;;;;;-145.50;100.00;65435.88;4951876;28;20464;-72
2023/07/30 04:18:49;;;;;;;23.92;7.22;;;;;;;-145.50;100.00;65435.88;4973260;28;20138;-72
2023/07/30 04:21:16;;;;;;;22.65;6.20;;;;;;;-145.50;100.00;65435.88;4970936;28;20057;-72
2023/07/30 04:23:42;;;;;;;22.90;7.70;;;;;;;-145.50;100.00;65435.88;4971803;28;20054;-72
2023/07/30 04:26:09;;;;;;;20.00;6.85;;;;;;;-145.50;100.00;65435.88;4967001;28;20062;-72
2023/07/30 04:28:35;;;;;;;16.02;6.40;;;;;;;-145.50;100.00;65435.88;4964272;28;20141;-72
2023/07/30 04:31:02;;;;;;;19.02;6.75;;;;;;;-145.50;100.00;65435.88;4983267;28;20055;-73
2023/07/30 04:33:29;;;;;;;21.63;7.47;;;;;;;-145.50;100.00;65435.88;4970690;28;20047;-72
2023/07/30 04:35:55;;;;;;;25.27;7.55;;;;;;;-145.50;100.00;65435.88;4978175;28;20069;-71
2023/07/30 04:38:22;;;;;;;21.30;7.55;;;;;;;-145.50;100.00;65435.88;4970523;28;20589;-72
2023/07/30 04:40:48;;;;;;;20.15;7.05;;;;;;;-145.50;100.00;65435.88;4970026;28;20156;-72
2023/07/30 04:43:15;;;;;;;21.40;7.70;;;;;;;-145.50;100.00;65435.88;4988641;28;20428;-71
2023/07/30 04:45:42;;;;;;;25.02;7.57;;;;;;;-145.50;100.00;65435.88;4977958;28;20153;-71
2023/07/30 04:48:09;;;;;;;22.95;7.22;;;;;;;-145.50;100.00;65435.88;4963313;28;20046;-72
2023/07/30 04:50:35;;;;;;;18.83;7.60;;;;;;;-145.50;100.00;65435.88;4972907;28;20054;-71
2023/07/30 04:53:02;;;;;;;21.42;7.40;;;;;;;-145.50;100.00;65435.88;4976384;28;20578;-71
2023/07/30 04:55:28;;;;;;;23.25;7.28;;;;;;;-145.50;100.00;65435.88;4966427;28;20058;-72
2023/07/30 04:57:55;;;;;;;17.90;7.00;;;;;;;-145.50;100.00;65435.88;4973806;28;20136;-72
2023/07/30 05:00:21;;;;;;;23.20;8.23;;;;;;;-145.50;100.00;65435.88;4953484;28;20058;-72
2023/07/30 05:02:48;;;;;;;21.92;7.95;;;;;;;-145.50;100.00;65435.88;4966994;28;20054;-72
2023/07/30 05:05:15;;;;;;;21.83;7.88;;;;;;;-145.50;100.00;65435.88;4982445;28;20050;-72
2023/07/30 05:07:41;;;;;;;23.85;8.77;;;;;;;-145.50;100.00;65435.88;4981288;28;20050;-72
2023/07/30 05:10:10;;;;;;;24.50;9.15;;;;;;;-145.50;100.00;65435.88;4986440;28;20054;-72
2023/07/30 05:12:37;;;;;;;23.30;8.85;;;;;;;-145.50;100.00;65435.88;4987695;28;20116;-72
2023/07/30 05:15:04;;;;;;;21.35;8.13;;;;;;;-145.50;100.00;65435.88;4958845;28;20055;-71
2023/07/30 05:17:31;;;;;;;19.25;8.35;;;;;;;-145.50;100.00;65435.88;4981297;28;20050;-72
2023/07/30 05:19:58;;;;;;;24.92;9.48;;;;;;;-145.50;100.00;65435.88;4960592;28;20058;-71
2023/07/30 05:22:25;;;;;;;20.52;8.88;;;;;;;-145.50;100.00;65435.88;4987823;28;20046;-72
2023/07/30 05:24:52;;;;;;;21.50;9.43;;;;;;;-145.50;100.00;65435.88;4962646;28;20761;-72
2023/07/30 05:27:18;;;;;;;25.40;10.20;;;;;;;-145.50;100.00;65435.88;4969125;28;20051;-72
2023/07/30 05:29:45;;;;;;;27.42;11.38;;;;;;;-145.50;100.00;65435.88;4966862;28;20058;-71
2023/07/30 05:32:14;;;;;;;25.98;10.38;;;;;;;-145.50;100.00;65435.88;4969829;28;20057;-72
2023/07/30 05:34:41;;;;;;;21.80;9.35;;;;;;;-145.50;100.00;65435.88;4981682;28;20063;-72
2023/07/30 05:37:08;;;;;;;26.33;10.45;;;;;;;-145.50;100.00;65435.88;4962919;28;20046;-71
2023/07/30 05:39:34;;;;;;;27.75;10.40;;;;;;;-145.50;100.00;65435.88;4983606;28;20182;-71
2023/07/30 05:42:01;;;;;;;23.98;9.63;;;;;;;-145.50;100.00;65435.88;4973520;28;20060;-71
2023/07/30 05:44:27;;;;;;;31.23;9.95;;;;;;;-145.50;100.00;65435.88;4989247;28;20054;-71
2023/07/30 05:46:54;;;;;;;22.92;9.88;;;;;;;-145.50;100.00;65435.88;4971831;28;20132;-71
2023/07/30 05:49:21;;;;;;;26.75;10.00;;;;;;;-145.50;100.00;65435.88;4972038;28;20403;-72
2023/07/30 05:51:47;;;;;;;28.23;10.35;;;;;;;-145.50;100.00;65435.88;4982779;28;20055;-71
2023/07/30 05:54:14;;;;;;;27.17;10.65;;;;;;;-145.50;100.00;65435.88;4976570;28;20491;-71
2023/07/30 05:56:40;;;;;;;26.92;11.15;;;;;;;-145.50;100.00;65435.88;4986462;28;20057;-71
2023/07/30 05:59:07;;;;;;;22.30;9.70;;;;;;;-145.50;100.00;65435.88;4956092;28;20065;-72
2023/07/30 06:01:33;;;;;;;25.38;10.55;;;;;;;-145.50;100.00;65435.88;4982645;28;20073;-71
2023/07/30 06:04:00;;;;;;;29.98;10.38;;;;;;;-145.50;100.00;65435.88;4980651;28;20117;-71
2023/07/30 06:06:27;;;;;;;32.70;11.77;;;;;;;-145.50;100.00;65435.88;4978017;28;20058;-71
2023/07/30 06:08:54;;;;;;;27.90;11.07;;;;;;;-145.50;100.00;65435.88;4980164;28;20427;-71
2023/07/30 06:11:21;;;;;;;27.90;10.98;;;;;;;-145.50;100.00;65435.88;4970601;28;20054;-72
2023/07/30 06:13:48;;;;;;;30.52;11.45;;;;;;;-145.50;100.00;65435.88;4976447;28;20117;-71
2023/07/30 06:16:15;;;;;;;23.00;10.63;;;;;;;-145.50;100.00;65435.88;4981611;28;20058;-71
2023/07/30 06:18:41;;;;;;;26.67;10.82;;;;;;;-145.50;100.00;65435.88;4970802;28;20074;-71
2023/07/30 06:21:08;;;;;;;24.80;11.18;;;;;;;-145.50;100.00;65435.88;4984940;28;20050;-70
2023/07/30 06:23:34;;;;;;;27.80;10.45;;;;;;;-145.50;100.00;65435.88;4961413;28;20543;-71
2023/07/30 06:26:01;;;;;;;31.23;11.20;;;;;;;-145.50;100.00;65435.88;4975485;28;20072;-71
2023/07/30 06:28:27;;;;;;;25.52;10.50;;;;;;;-145.50;100.00;65435.88;4978066;28;20566;-71
2023/07/30 06:30:54;;;;;;;27.05;10.93;;;;;;;-145.50;100.00;65435.88;4985349;28;20491;-71
2023/07/30 06:33:20;;;;;;;27.48;10.73;;;;;;;-145.50;100.00;65435.88;4986754;28;20547;-70
2023/07/30 06:35:47;;;;;;;22.73;9.82;;;;;;;-145.50;100.00;65435.88;4972328;28;20058;-71
2023/07/30 06:38:13;;;;;;;25.67;10.38;;;;;;;-145.50;100.00;65435.88;4966940;28;20080;-71
2023/07/30 06:40:40;;;;;;;22.10;9.70;;;;;;;-145.50;100.00;65435.88;4969459;28;20101;-71
2023/07/30 06:43:06;;;;;;;29.48;10.50;;;;;;;-145.50;100.00;65435.88;4980729;28;20191;-72
2023/07/30 06:45:33;;;;;;;21.65;9.63;;;;;;;-145.50;100.00;65435.88;4965179;28;20058;-71
2023/07/30 06:47:59;;;;;;;30.90;11.15;;;;;;;-145.50;100.00;65435.88;4980705;28;20688;-71
2023/07/30 06:50:26;;;;;;;27.17;11.02;;;;;;;-145.50;100.00;65435.88;4976217;28;20519;-70
2023/07/30 06:52:52;;;;;;;23.40;9.88;;;;;;;-145.50;100.00;65435.88;4955004;28;20134;-71
2023/07/30 06:55:19;;;;;;;23.38;10.10;;;;;;;-145.50;100.00;65435.88;4982922;28;20054;-71
2023/07/30 06:57:45;;;;;;;27.60;10.40;;;;;;;-145.50;100.00;65435.88;4979294;28;20058;-70
2023/07/30 07:00:13;;;;;;;28.98;9.60;;;;;;;-145.50;100.00;65435.88;4976337;28;20046;-71
2023/07/30 07:02:39;;;;;;;23.33;9.32;;;;;;;-145.50;100.00;65435.88;4979057;28;20134;-70
2023/07/30 07:05:06;;;;;;;29.38;10.63;;;;;;;-145.50;100.00;65435.88;4979903;28;20062;-71
2023/07/30 07:07:32;;;;;;;25.55;11.27;;;;;;;-145.50;100.00;65435.88;4975649;28;20104;-71
2023/07/30 07:09:59;;;;;;;29.40;11.88;;;;;;;-145.50;100.00;65435.88;4959684;28;20046;-71
2023/07/30 07:12:25;;;;;;;27.13;11.82;;;;;;;-145.50;100.00;65435.88;4968407;28;20085;-71
2023/07/30 07:14:52;;;;;;;33.38;12.40;;;;;;;-145.50;100.00;65435.88;4978638;28;20120;-71
2023/07/30 07:17:18;;;;;;;26.80;10.88;;;;;;;-145.50;100.00;65435.88;4985525;28;20105;-70
2023/07/30 07:19:45;;;;;;;24.83;11.35;;;;;;;-145.50;100.00;65435.88;4972480;28;20058;-70
2023/07/30 07:22:12;;;;;;;24.52;10.40;;;;;;;-145.50;100.00;65435.88;4974282;28;20054;-71
2023/07/30 07:24:38;;;;;;;24.10;11.18;;;;;;;-145.50;100.00;65435.88;4987067;28;20047;-71
2023/07/30 07:27:05;;;;;;;26.52;10.95;;;;;;;-145.50;100.00;65435.88;4976348;28;20054;-71
2023/07/30 07:29:31;;;;;;;22.20;10.77;;;;;;;-145.50;100.00;65435.88;4985211;28;20380;-72
2023/07/30 07:31:58;;;;;;;27.13;10.50;;;;;;;-145.50;100.00;65435.88;4962611;28;20511;-71
2023/07/30 07:34:24;;;;;;;29.00;10.38;;;;;;;-145.50;100.00;65435.88;4965696;28;20141;-71
2023/07/30 07:36:51;;;;;;;21.05;10.38;;;;;;;-145.50;100.00;65435.88;4970230;28;20132;-71
2023/07/30 07:39:18;;;;;;;27.67;9.85;;;;;;;-145.50;100.00;65435.88;4982797;28;20490;-71
2023/07/30 07:41:44;;;;;;;24.17;9.60;;;;;;;-145.50;100.00;65435.88;4978786;28;20050;-70
2023/07/30 07:44:11;;;;;;;25.50;9.32;;;;;;;-145.50;100.00;65435.88;4955394;28;20100;-71
2023/07/30 07:46:37;;;;;;;22.05;8.43;;;;;;;-145.50;100.00;65435.88;4981987;28;20136;-71
2023/07/30 07:49:04;;;;;;;22.73;8.07;;;;;;;-145.50;100.00;65435.88;4952679;28;20046;-70
2023/07/30 07:51:31;;;;;;;22.45;7.88;;;;;;;-145.50;100.00;65435.88;4982477;28;20072;-71
2023/07/30 07:53:58;;;;;;;17.80;7.60;;;;;;;-145.50;100.00;65435.88;4978618;28;20054;-71
2023/07/30 07:56:24;;;;;;;18.42;6.63;;;;;;;-145.50;100.00;65435.88;4986030;28;20499;-70
2023/07/30 07:58:51;;;;;;;25.50;7.20;;;;;;;-145.50;100.00;65435.88;4984732;28;20069;-70
2023/07/30 08:01:18;;;;;;;17.58;6.25;;;;;;;-145.50;100.00;65435.88;4973356;28;20424;-71
2023/07/30 08:03:44;;;;;;;18.80;5.93;;;;;;;-145.50;100.00;65435.88;4976413;28;20109;-71
2023/07/30 08:06:11;;;;;;;19.17;6.32;;;;;;;-145.50;100.00;65435.88;4968467;28;20050;-70
2023/07/30 08:08:38;;;;;;;20.33;6.25;;;;;;;-145.50;100.00;65435.88;4985090;28;20086;-70
2023/07/30 08:11:08;;;;;;;13.82;5.70;;;;;;;-145.50;100.00;65435.88;4974282;28;20480;-70
2023/07/30 08:13:35;;;;;;;16.65;5.95;;;;;;;-145.50;100.00;65435.88;4984953;28;20411;-71
2023/07/30 08:16:02;;;;;;;22.00;5.97;;;;;;;-145.50;100.00;65435.88;4980321;28;20050;-72
2023/07/30 08:18:28;;;;;;;18.48;5.50;;;;;;;-145.50;100.00;65435.88;4940285;28;20059;-72
2023/07/30 08:20:55;;;;;;;14.82;5.97;;;;;;;-145.50;100.00;65435.88;4978329;28;20078;-72
2023/07/30 08:23:21;;;;;;;17.50;6.22;;;;;;;-145.50;100.00;65435.88;4975367;28;20145;-71
2023/07/30 08:25:49;;;;;;;19.80;5.95;;;;;;;-145.50;100.00;65435.88;4979970;28;20475;-72
2023/07/30 08:28:17;;;;;;;14.27;5.72;;;;;;;-145.50;100.00;65435.88;4938181;28;20060;-72
2023/07/30 08:30:44;;;;;;;16.42;5.45;;;;;;;-145.50;100.00;65435.88;4973949;28;20053;-72
2023/07/30 08:33:11;;;;;;;21.33;6.25;;;;;;;-145.50;100.00;65435.88;4981898;28;20046;-71
2023/07/30 08:35:37;;;;;;;16.00;5.88;;;;;;;-145.50;100.00;65435.88;4984317;28;20062;-72
2023/07/30 08:38:04;;;;;;;19.70;6.47;;;;;;;-145.50;100.00;65435.88;4977774;28;20081;-72
2023/07/30 08:40:31;;;;;;;22.33;6.00;;;;;;;-145.50;100.00;65435.88;4967562;28;20106;-72
2023/07/30 08:42:58;;;;;;;19.73;6.50;;;;;;;-145.50;100.00;65435.88;4978826;28;20141;-72
2023/07/30 08:45:25;;;;;;;18.02;6.13;;;;;;;-145.50;100.00;65435.88;4968267;28;20058;-72
2023/07/30 08:47:52;;;;;;;21.23;6.45;;;;;;;-145.50;100.00;65435.88;4965119;28;20054;-72
2023/07/30 08:50:19;;;;;;;18.33;6.70;;;;;;;-145.50;100.00;65435.88;4997350;28;20049;-72
2023/07/30 08:52:47;;;;;;;17.13;5.70;;;;;;;-145.50;100.00;65435.88;4982223;28;20641;-72
2023/07/30 08:55:15;;;;;;;20.08;6.32;;;;;;;-145.50;100.00;65435.88;4989836;28;20089;-72
2023/07/30 08:57:44;;;;;;;17.85;5.40;;;;;;;-145.50;100.00;65435.88;4981322;28;20062;-72
2023/07/30 09:00:11;;;;;;;18.67;5.70;;;;;;;-145.50;100.00;65435.88;4983628;28;20146;-72
2023/07/30 09:02:42;;;;;;;16.13;5.35;;;;;;;-145.50;100.00;65435.88;4980569;28;20153;-72
2023/07/30 09:05:10;;;;;;;19.58;5.25;;;;;;;-145.50;100.00;65435.88;4989473;28;20412;-72
2023/07/30 09:07:37;;;;;;;15.60;4.10;;;;;;;-145.50;100.00;65435.88;4986588;28;20049;-72
2023/07/30 09:10:04;;;;;;;16.42;4.32;;;;;;;-145.50;100.00;65435.88;4980094;28;20054;-72
2023/07/30 09:12:32;;;;;;;16.38;4.60;;;;;;;-145.50;100.00;65435.88;4981224;28;20338;-72
2023/07/30 09:15:01;;;;;;;15.55;4.70;;;;;;;-145.50;100.00;65435.88;4988917;28;20110;-72
2023/07/30 09:17:27;;;;;;;;;;;;;;;-145.50;100.00;65435.88;4992082;28;20073;-72
2023/07/30 09:19:54;;;;;;;18.58;4.85;;;;;;;-145.50;100.00;65435.88;5004934;28;20009;-72
2023/07/30 09:22:26;;;;;;;19.92;5.32;;;;;;;-145.50;100.00;65435.88;4990990;28;20519;-72
2023/07/30 09:24:54;;;;;;;17.38;4.38;;;;;;;-145.50;100.00;65435.88;4980958;28;20117;-72
2023/07/30 09:27:23;;;;;;;19.63;4.47;;;;;;;-145.50;100.00;65435.88;4979223;28;20105;-71
2023/07/30 09:29:54;;;;;;;14.73;3.75;;;;;;;-145.50;100.00;65435.88;4990495;28;20116;-70
2023/07/30 09:32:28;;;;;;;13.43;3.85;;;;;;;-145.50;100.00;65435.88;4980214;28;20054;-71
2023/07/30 09:34:56;;;;;;;14.32;3.58;;;;;;;-145.50;100.00;65435.88;4977355;28;20347;-71
2023/07/30 09:37:23;;;;;;;16.45;3.97;;;;;;;-145.50;100.00;65435.88;4974533;28;20058;-71
2023/07/30 09:39:50;;;;;;;14.45;4.28;;;;;;;-145.50;100.00;65435.88;4982373;28;20387;-71
2023/07/30 09:42:16;;;;;;;14.30;3.50;;;;;;;-145.50;100.00;65435.88;4984686;28;20051;-71
2023/07/30 09:44:47;;;;;;;17.02;3.88;;;;;;;-145.50;100.00;65435.88;4980174;28;20138;-71
2023/07/30 09:47:13;;;;;;;12.15;3.20;;;;;;;-145.50;100.00;65435.88;4984722;28;20109;-70
2023/07/30 09:49:40;;;;;;;14.32;3.95;;;;;;;-145.50;100.00;65435.88;4978984;28;20061;-70
2023/07/30 09:52:06;;;;;;;13.90;3.58;;;;;;;-145.50;100.00;65435.88;4980354;28;20746;-71
2023/07/30 09:54:33;;;;;;;11.32;3.40;;;;;;;-145.50;100.00;65435.88;4952795;28;20050;-71
2023/07/30 09:57:00;;;;;;;10.55;3.33;;;;;;;-145.50;100.00;65435.88;4963576;28;20061;-71
2023/07/30 09:59:27;;;;;;;11.48;3.40;;;;;;;-145.50;100.00;65435.88;4986781;28;20112;-71
2023/07/30 10:01:55;;;;;;;12.23;3.38;;;;;;;-145.50;100.00;65435.88;4979124;28;20057;-71
2023/07/30 10:04:22;;;;;;;12.95;3.75;;;;;;;-145.50;100.00;65435.88;4973338;28;20054;-71
2023/07/30 10:06:58;;;;;;;11.63;3.20;;;;;;;-145.50;100.00;65435.88;4969331;28;20054;-71
2023/07/30 10:09:29;;;;;;;12.20;3.10;;;;;;;-145.50;100.00;65435.88;4977685;28;20299;-70
2023/07/30 10:11:58;;;;;;;13.88;3.65;;;;;;;-145.50;100.00;65435.88;4978011;28;20064;-70
2023/07/30 10:14:25;;;;;;;10.20;3.13;;;;;;;-145.50;100.00;65435.88;4965398;28;20106;-70
2023/07/30 10:16:53;;;;;;;15.40;3.10;;;;;;;-145.50;100.00;65435.88;4966908;28;20054;-70
2023/07/30 10:19:25;;;;;;;12.02;2.95;;;;;;;-145.50;100.00;65435.88;4974269;28;20050;-71
2023/07/30 10:22:12;;;;;;;15.93;2.90;;;;;;;-145.50;100.00;65435.88;4984979;28;20046;-70
2023/07/30 10:24:39;;;;;;;14.48;2.70;;;;;;;-145.50;100.00;65435.88;4973310;28;20137;-72
2023/07/30 10:27:07;;;;;;;10.85;2.63;;;;;;;-145.50;100.00;65435.88;4984356;28;20051;-71
2023/07/30 10:29:41;;;;;;;12.75;2.70;;;;;;;-145.50;100.00;65435.88;4978322;28;20054;-70
2023/07/30 10:32:08;;;;;;;10.48;2.25;;;;;;;-145.50;100.00;65435.88;4986782;28;20054;-70
2023/07/30 10:34:47;;;;;;;11.88;2.60;;;;;;;-145.50;100.00;65435.88;4979960;28;20058;-70
2023/07/30 10:37:25;;;;;;;9.85;2.47;;;;;;;-145.50;100.00;65435.88;4981094;28;20054;-70
2023/07/30 10:39:52;;;;;;;7.45;2.05;;;;;;;-145.50;100.00;65435.88;4975310;28;20058;-70
2023/07/30 10:42:18;;;;;;;8.32;1.70;;;;;;;-145.50;100.00;65435.88;4974324;28;20057;-72
2023/07/30 10:44:45;;;;;;;6.18;1.50;;;;;;;-145.50;100.00;65435.88;4984202;28;20093;-71
2023/07/30 10:47:12;;;;;;;6.47;1.83;;;;;;;-145.50;100.00;65435.88;4972623;28;20197;-71
2023/07/30 10:50:02;;;;;;;8.10;1.70;;;;;;;-145.50;100.00;65435.88;4980510;28;20136;-71
2023/07/30 10:52:29;;;;;;;6.30;1.50;;;;;;;-145.50;100.00;65435.88;4961663;28;20054;-71
2023/07/30 10:55:01;;;;;;;9.68;1.90;;;;;;;-145.50;100.00;65435.88;4983440;28;20782;-71
2023/07/30 10:57:31;;;;;;;11.70;1.80;;;;;;;-145.50;100.00;65435.88;4987617;28;20411;-71
2023/07/30 11:00:02;;;;;;;10.98;1.98;;;;;;;-145.50;100.00;65435.88;4978817;28;20515;-71
2023/07/30 11:02:29;;;;;;;9.60;1.67;;;;;;;-145.50;100.00;65435.88;4975628;28;20411;-71